CCA114 ZBAA-ZSPD
Flight info
| Callsign | CCA114 |
|---|---|
| Flight time | 1h 43m |
| Altitude | 36099 |
| Route | CDQ11028 |
| Aircraft | A320/M-SDE3FGHIRWY/LB1 |
Departure
| Time | 2026-05-04 14:45 |
|---|---|
| Airport | Beijing Capital International Airport (ZBAA) |
Arrival
| Time | 2026-05-04 16:28 |
|---|---|
| Airport | Shanghai Pudong International Airport (ZSPD) |
| Time | Latitude | Longitude | Altitude | Speed | Heading |
|---|---|---|---|---|---|
| 2026-05-04 13:52 | 40.07684 | 116.59058 | 146 ft | 0 kts | 208° |
| 2026-05-04 14:30 | 40.07699 | 116.59069 | 119 ft | 4 kts | 208° |
| 2026-05-04 14:30 | 40.07723 | 116.59085 | 121 ft | 4 kts | 208° |
| 2026-05-04 14:30 | 40.07755 | 116.59111 | 122 ft | 4 kts | 235° |
| 2026-05-04 14:31 | 40.07768 | 116.59133 | 122 ft | 4 kts | 227° |
| 2026-05-04 14:31 | 40.07811 | 116.59146 | 121 ft | 4 kts | 173° |
| 2026-05-04 14:32 | 40.07832 | 116.59142 | 121 ft | 0 kts | 173° |
| 2026-05-04 14:36 | 40.07830 | 116.59143 | 121 ft | 2 kts | 173° |
| 2026-05-04 14:36 | 40.07819 | 116.59144 | 120 ft | 5 kts | 173° |
| 2026-05-04 14:36 | 40.07766 | 116.59177 | 119 ft | 9 kts | 127° |
| 2026-05-04 14:36 | 40.07782 | 116.59241 | 119 ft | 7 kts | 38° |
| 2026-05-04 14:37 | 40.07828 | 116.59248 | 123 ft | 10 kts | 353° |
| 2026-05-04 14:37 | 40.07943 | 116.59229 | 122 ft | 22 kts | 354° |
| 2026-05-04 14:37 | 40.08102 | 116.59206 | 124 ft | 24 kts | 353° |
| 2026-05-04 14:37 | 40.08271 | 116.59180 | 122 ft | 25 kts | 353° |
| 2026-05-04 14:38 | 40.08405 | 116.59159 | 123 ft | 14 kts | 352° |
| 2026-05-04 14:38 | 40.08439 | 116.59094 | 120 ft | 9 kts | 269° |
| 2026-05-04 14:38 | 40.08429 | 116.58988 | 124 ft | 16 kts | 264° |
| 2026-05-04 14:38 | 40.08412 | 116.58814 | 122 ft | 21 kts | 262° |
| 2026-05-04 14:39 | 40.08395 | 116.58616 | 122 ft | 23 kts | 263° |
| 2026-05-04 14:39 | 40.08375 | 116.58406 | 124 ft | 24 kts | 263° |
| 2026-05-04 14:39 | 40.08353 | 116.58181 | 122 ft | 26 kts | 263° |
| 2026-05-04 14:40 | 40.08318 | 116.57785 | 124 ft | 23 kts | 263° |
| 2026-05-04 14:40 | 40.08302 | 116.57615 | 124 ft | 15 kts | 262° |
| 2026-05-04 14:40 | 40.08288 | 116.57516 | 122 ft | 9 kts | 235° |
| 2026-05-04 14:40 | 40.08226 | 116.57509 | 123 ft | 12 kts | 174° |
| 2026-05-04 14:41 | 40.08125 | 116.57526 | 124 ft | 18 kts | 173° |
| 2026-05-04 14:41 | 40.07986 | 116.57548 | 123 ft | 22 kts | 174° |
| 2026-05-04 14:41 | 40.07665 | 116.57597 | 123 ft | 24 kts | 173° |
| 2026-05-04 14:42 | 40.07405 | 116.57635 | 120 ft | 12 kts | 186° |
| 2026-05-04 14:42 | 40.07368 | 116.57621 | 121 ft | 5 kts | 201° |
| 2026-05-04 14:42 | 40.07352 | 116.57599 | 120 ft | 3 kts | 249° |
| 2026-05-04 14:43 | 40.07350 | 116.57578 | 119 ft | 2 kts | 264° |
| 2026-05-04 14:43 | 40.07350 | 116.57512 | 121 ft | 11 kts | 277° |
| 2026-05-04 14:43 | 40.07368 | 116.57422 | 122 ft | 9 kts | 323° |
| 2026-05-04 14:43 | 40.07422 | 116.57411 | 120 ft | 7 kts | 354° |
| 2026-05-04 14:44 | 40.07537 | 116.57393 | 122 ft | 44 kts | 353° |
| 2026-05-04 14:44 | 40.08088 | 116.57308 | 122 ft | 113 kts | 353° |
| 2026-05-04 14:44 | 40.09075 | 116.57172 | 127 ft | 166 kts | 355° |
| 2026-05-04 14:44 | 40.10262 | 116.57018 | 713 ft | 168 kts | 353° |
| 2026-05-04 14:45 | 40.11397 | 116.56672 | 1322 ft | 170 kts | 322° |
| 2026-05-04 14:45 | 40.12296 | 116.55626 | 1718 ft | 181 kts | 308° |
| 2026-05-04 14:45 | 40.13276 | 116.54446 | 2058 ft | 203 kts | 311° |
| 2026-05-04 14:45 | 40.14398 | 116.53160 | 2350 ft | 228 kts | 313° |
| 2026-05-04 14:46 | 40.15668 | 116.51740 | 2757 ft | 253 kts | 313° |
| 2026-05-04 14:46 | 40.17043 | 116.50201 | 3405 ft | 266 kts | 313° |
| 2026-05-04 14:46 | 40.18450 | 116.48588 | 4341 ft | 269 kts | 313° |
| 2026-05-04 14:46 | 40.19854 | 116.46961 | 5322 ft | 270 kts | 314° |
| 2026-05-04 14:47 | 40.21214 | 116.45272 | 6301 ft | 269 kts | 306° |
| 2026-05-04 14:47 | 40.22173 | 116.43197 | 7194 ft | 267 kts | 289° |
| 2026-05-04 14:47 | 40.22593 | 116.40848 | 8054 ft | 267 kts | 273° |
| 2026-05-04 14:47 | 40.22614 | 116.38401 | 8935 ft | 270 kts | 270° |
| 2026-05-04 14:48 | 40.22613 | 116.35930 | 9799 ft | 274 kts | 270° |
| 2026-05-04 14:48 | 40.22611 | 116.33379 | 10297 ft | 291 kts | 270° |
| 2026-05-04 14:48 | 40.22611 | 116.30630 | 10529 ft | 314 kts | 270° |
| 2026-05-04 14:48 | 40.22613 | 116.27662 | 10739 ft | 338 kts | 270° |
| 2026-05-04 14:49 | 40.22617 | 116.24479 | 10918 ft | 359 kts | 271° |
| 2026-05-04 14:49 | 40.22621 | 116.21166 | 11426 ft | 369 kts | 271° |
| 2026-05-04 14:49 | 40.22621 | 116.17785 | 12076 ft | 373 kts | 271° |
| 2026-05-04 14:49 | 40.22618 | 116.14364 | 12746 ft | 378 kts | 271° |
| 2026-05-04 14:50 | 40.22555 | 116.10908 | 13392 ft | 383 kts | 265° |
| 2026-05-04 14:50 | 40.21973 | 116.07495 | 13975 ft | 389 kts | 252° |
| 2026-05-04 14:50 | 40.20770 | 116.04301 | 14532 ft | 396 kts | 238° |
| 2026-05-04 14:50 | 40.18986 | 116.01523 | 15094 ft | 402 kts | 224° |
| 2026-05-04 14:51 | 40.16716 | 115.99361 | 15660 ft | 408 kts | 211° |
| 2026-05-04 14:51 | 40.14222 | 115.97656 | 16234 ft | 411 kts | 209° |
| 2026-05-04 14:51 | 40.11642 | 115.95918 | 16788 ft | 413 kts | 208° |
| 2026-05-04 14:51 | 40.09112 | 115.94215 | 17336 ft | 416 kts | 208° |
| 2026-05-04 14:52 | 40.06529 | 115.92469 | 17877 ft | 420 kts | 208° |
| 2026-05-04 14:52 | 40.03829 | 115.90985 | 18371 ft | 424 kts | 198° |
| 2026-05-04 14:52 | 40.00935 | 115.90170 | 18807 ft | 428 kts | 188° |
| 2026-05-04 14:52 | 39.97951 | 115.90081 | 19231 ft | 434 kts | 176° |
| 2026-05-04 14:53 | 39.94957 | 115.90744 | 19634 ft | 440 kts | 166° |
| 2026-05-04 14:53 | 39.92051 | 115.92067 | 20056 ft | 444 kts | 160° |
| 2026-05-04 14:53 | 39.89153 | 115.93490 | 20496 ft | 446 kts | 160° |
| 2026-05-04 14:53 | 39.86239 | 115.94913 | 20909 ft | 449 kts | 160° |
| 2026-05-04 14:54 | 39.83348 | 115.96484 | 21288 ft | 454 kts | 154° |
| 2026-05-04 14:54 | 39.80638 | 115.98613 | 21677 ft | 457 kts | 144° |
| 2026-05-04 14:54 | 39.78199 | 116.01279 | 22042 ft | 460 kts | 136° |
| 2026-05-04 14:54 | 39.75897 | 116.04174 | 22477 ft | 462 kts | 136° |
| 2026-05-04 14:55 | 39.73577 | 116.07075 | 22872 ft | 464 kts | 136° |
| 2026-05-04 14:55 | 39.71233 | 116.09990 | 23254 ft | 467 kts | 136° |
| 2026-05-04 14:55 | 39.68878 | 116.12913 | 23592 ft | 470 kts | 136° |
| 2026-05-04 14:55 | 39.66508 | 116.15855 | 23895 ft | 472 kts | 136° |
| 2026-05-04 14:56 | 39.64129 | 116.18804 | 24185 ft | 475 kts | 136° |
| 2026-05-04 14:56 | 39.61736 | 116.21767 | 24480 ft | 477 kts | 136° |
| 2026-05-04 14:56 | 39.59328 | 116.24743 | 24774 ft | 479 kts | 136° |
| 2026-05-04 14:56 | 39.56911 | 116.27727 | 25067 ft | 481 kts | 136° |
| 2026-05-04 14:57 | 39.54485 | 116.30718 | 25380 ft | 482 kts | 136° |
| 2026-05-04 14:57 | 39.52052 | 116.33714 | 25651 ft | 484 kts | 136° |
| 2026-05-04 14:57 | 39.49511 | 116.36521 | 25897 ft | 487 kts | 143° |
| 2026-05-04 14:57 | 39.46604 | 116.38881 | 26180 ft | 489 kts | 152° |
| 2026-05-04 14:58 | 39.43532 | 116.40607 | 26552 ft | 488 kts | 161° |
| 2026-05-04 14:58 | 39.40223 | 116.41814 | 26928 ft | 487 kts | 166° |
| 2026-05-04 14:58 | 39.36978 | 116.42868 | 27302 ft | 487 kts | 166° |
| 2026-05-04 14:58 | 39.33693 | 116.43942 | 27674 ft | 487 kts | 166° |
| 2026-05-04 14:59 | 39.30409 | 116.45016 | 28039 ft | 488 kts | 166° |
| 2026-05-04 14:59 | 39.27116 | 116.46091 | 28413 ft | 488 kts | 166° |
| 2026-05-04 14:59 | 39.20541 | 116.48235 | 29166 ft | 488 kts | 166° |
| 2026-05-04 15:00 | 39.17247 | 116.49304 | 29544 ft | 488 kts | 166° |
| 2026-05-04 15:00 | 39.13957 | 116.50373 | 29917 ft | 488 kts | 166° |
| 2026-05-04 15:00 | 39.10667 | 116.51443 | 30246 ft | 488 kts | 166° |
| 2026-05-04 15:01 | 39.04085 | 116.53587 | 30884 ft | 487 kts | 165° |
| 2026-05-04 15:01 | 39.00802 | 116.54654 | 31235 ft | 487 kts | 165° |
| 2026-05-04 15:01 | 38.97522 | 116.55716 | 31570 ft | 486 kts | 165° |
| 2026-05-04 15:01 | 38.94242 | 116.56771 | 31909 ft | 486 kts | 166° |
| 2026-05-04 15:02 | 38.90962 | 116.57828 | 32272 ft | 485 kts | 166° |
| 2026-05-04 15:02 | 38.87694 | 116.58879 | 32621 ft | 484 kts | 166° |
| 2026-05-04 15:02 | 38.84438 | 116.59926 | 32954 ft | 483 kts | 166° |
| 2026-05-04 15:02 | 38.81166 | 116.60977 | 33277 ft | 483 kts | 166° |
| 2026-05-04 15:03 | 38.77915 | 116.62024 | 33628 ft | 482 kts | 166° |
| 2026-05-04 15:03 | 38.74661 | 116.63071 | 33960 ft | 482 kts | 166° |
| 2026-05-04 15:03 | 38.71415 | 116.64113 | 34243 ft | 481 kts | 166° |
| 2026-05-04 15:03 | 38.68164 | 116.65151 | 34537 ft | 481 kts | 166° |
| 2026-05-04 15:04 | 38.64888 | 116.65957 | 34816 ft | 479 kts | 174° |
| 2026-05-04 15:04 | 38.61569 | 116.66168 | 35095 ft | 477 kts | 183° |
| 2026-05-04 15:04 | 38.58266 | 116.65854 | 35366 ft | 475 kts | 187° |
| 2026-05-04 15:04 | 38.55026 | 116.65469 | 35655 ft | 474 kts | 187° |
| 2026-05-04 15:05 | 38.51738 | 116.65082 | 35920 ft | 473 kts | 187° |
| 2026-05-04 15:05 | 38.48456 | 116.64702 | 35997 ft | 475 kts | 187° |
| 2026-05-04 15:05 | 38.41869 | 116.63945 | 36011 ft | 476 kts | 187° |
| 2026-05-04 15:06 | 38.35272 | 116.63200 | 36016 ft | 475 kts | 187° |
| 2026-05-04 15:07 | 38.25398 | 116.63885 | 36013 ft | 480 kts | 165° |
| 2026-05-04 15:07 | 38.18988 | 116.66284 | 36012 ft | 480 kts | 165° |
| 2026-05-04 15:08 | 38.12561 | 116.68660 | 36010 ft | 480 kts | 165° |
| 2026-05-04 15:08 | 38.06152 | 116.71045 | 36014 ft | 480 kts | 165° |
| 2026-05-04 15:09 | 37.99750 | 116.73498 | 36014 ft | 480 kts | 165° |
| 2026-05-04 15:09 | 37.93397 | 116.75941 | 36016 ft | 480 kts | 165° |
| 2026-05-04 15:10 | 37.83800 | 116.79590 | 36016 ft | 480 kts | 165° |
| 2026-05-04 15:11 | 37.74198 | 116.83215 | 36018 ft | 480 kts | 165° |
| 2026-05-04 15:11 | 37.67793 | 116.85624 | 36009 ft | 480 kts | 165° |
| 2026-05-04 15:12 | 37.61384 | 116.88039 | 36027 ft | 480 kts | 165° |
| 2026-05-04 15:12 | 37.54984 | 116.90455 | 36029 ft | 480 kts | 165° |
| 2026-05-04 15:13 | 37.48580 | 116.92863 | 36030 ft | 480 kts | 165° |
| 2026-05-04 15:13 | 37.42180 | 116.95259 | 36024 ft | 480 kts | 165° |
| 2026-05-04 15:14 | 37.35782 | 116.97658 | 36024 ft | 480 kts | 165° |
| 2026-05-04 15:14 | 37.29374 | 117.00060 | 36037 ft | 480 kts | 165° |
| 2026-05-04 15:15 | 37.23055 | 117.02805 | 36025 ft | 481 kts | 161° |
| 2026-05-04 15:15 | 37.16848 | 117.05857 | 36028 ft | 482 kts | 160° |
| 2026-05-04 15:16 | 37.07466 | 117.10378 | 36036 ft | 482 kts | 161° |
| 2026-05-04 15:17 | 36.97997 | 117.14747 | 36022 ft | 481 kts | 162° |
| 2026-05-04 15:17 | 36.88613 | 117.19089 | 36032 ft | 482 kts | 162° |
| 2026-05-04 15:18 | 36.82189 | 117.21306 | 36031 ft | 477 kts | 176° |
| 2026-05-04 15:19 | 36.73367 | 117.21524 | 36024 ft | 474 kts | 184° |
| 2026-05-04 15:19 | 36.63506 | 117.21453 | 36048 ft | 475 kts | 184° |
| 2026-05-04 15:20 | 36.55784 | 117.21398 | 36062 ft | 475 kts | 184° |
| 2026-05-04 15:20 | 36.50288 | 117.21365 | 36055 ft | 475 kts | 184° |
| 2026-05-04 15:21 | 36.43673 | 117.21385 | 36072 ft | 477 kts | 179° |
| 2026-05-04 15:21 | 36.37149 | 117.23026 | 36083 ft | 482 kts | 166° |
| 2026-05-04 15:22 | 36.33945 | 117.24233 | 36084 ft | 482 kts | 166° |
| 2026-05-04 15:22 | 36.24308 | 117.27814 | 36079 ft | 481 kts | 166° |
| 2026-05-04 15:23 | 36.17887 | 117.30184 | 36082 ft | 481 kts | 166° |
| 2026-05-04 15:23 | 36.11478 | 117.32557 | 36083 ft | 482 kts | 166° |
| 2026-05-04 15:24 | 35.98636 | 117.37302 | 36081 ft | 481 kts | 166° |
| 2026-05-04 15:25 | 35.92231 | 117.39697 | 36082 ft | 481 kts | 166° |
| 2026-05-04 15:26 | 35.82625 | 117.43312 | 36088 ft | 481 kts | 166° |
| 2026-05-04 15:26 | 35.73011 | 117.46883 | 36088 ft | 481 kts | 166° |
| 2026-05-04 15:27 | 35.63406 | 117.50457 | 36102 ft | 481 kts | 166° |
| 2026-05-04 15:28 | 35.53843 | 117.54006 | 36101 ft | 480 kts | 166° |
| 2026-05-04 15:29 | 35.44241 | 117.57568 | 36109 ft | 480 kts | 166° |
| 2026-05-04 15:30 | 35.22030 | 117.65755 | 36108 ft | 480 kts | 166° |
| 2026-05-04 15:31 | 35.12436 | 117.69269 | 36106 ft | 479 kts | 166° |
| 2026-05-04 15:32 | 34.96453 | 117.75129 | 36113 ft | 480 kts | 166° |
| 2026-05-04 15:34 | 34.80470 | 117.80979 | 36110 ft | 479 kts | 167° |
| 2026-05-04 15:34 | 34.70889 | 117.84438 | 36120 ft | 478 kts | 167° |
| 2026-05-04 15:35 | 34.61315 | 117.87866 | 36116 ft | 478 kts | 167° |
| 2026-05-04 15:36 | 34.51759 | 117.91288 | 36109 ft | 477 kts | 167° |
| 2026-05-04 15:36 | 34.45393 | 117.93570 | 36109 ft | 477 kts | 167° |
| 2026-05-04 15:37 | 34.38690 | 117.95963 | 36114 ft | 477 kts | 167° |
| 2026-05-04 15:37 | 34.32324 | 117.98223 | 36098 ft | 477 kts | 167° |
| 2026-05-04 15:38 | 34.25959 | 118.00494 | 36109 ft | 477 kts | 167° |
| 2026-05-04 15:38 | 34.19606 | 118.02812 | 36114 ft | 477 kts | 167° |
| 2026-05-04 15:39 | 34.16435 | 118.03980 | 35999 ft | 477 kts | 167° |
| 2026-05-04 15:39 | 34.13261 | 118.05145 | 35754 ft | 476 kts | 167° |
| 2026-05-04 15:39 | 34.06912 | 118.07453 | 35255 ft | 476 kts | 167° |
| 2026-05-04 15:40 | 34.03742 | 118.08601 | 35075 ft | 475 kts | 167° |
| 2026-05-04 15:40 | 33.97404 | 118.10900 | 35110 ft | 476 kts | 167° |
| 2026-05-04 15:41 | 33.91062 | 118.13207 | 35114 ft | 476 kts | 167° |
| 2026-05-04 15:41 | 33.84767 | 118.15497 | 35112 ft | 476 kts | 167° |
| 2026-05-04 15:42 | 33.78722 | 118.18875 | 35122 ft | 485 kts | 149° |
| 2026-05-04 15:42 | 33.73169 | 118.23509 | 35121 ft | 486 kts | 148° |
| 2026-05-04 15:43 | 33.67605 | 118.28143 | 35122 ft | 487 kts | 148° |
| 2026-05-04 15:43 | 33.62040 | 118.32760 | 35126 ft | 487 kts | 149° |
| 2026-05-04 15:44 | 33.56468 | 118.37369 | 35123 ft | 487 kts | 149° |
| 2026-05-04 15:44 | 33.50891 | 118.41980 | 35098 ft | 486 kts | 149° |
| 2026-05-04 15:45 | 33.45321 | 118.46578 | 35110 ft | 487 kts | 149° |
| 2026-05-04 15:45 | 33.39744 | 118.51179 | 35116 ft | 487 kts | 149° |
| 2026-05-04 15:46 | 33.34166 | 118.55772 | 35127 ft | 487 kts | 149° |
| 2026-05-04 15:46 | 33.28589 | 118.60358 | 35126 ft | 486 kts | 149° |
| 2026-05-04 15:47 | 33.23008 | 118.64938 | 35116 ft | 486 kts | 150° |
| 2026-05-04 15:47 | 33.17432 | 118.69518 | 35116 ft | 487 kts | 150° |
| 2026-05-04 15:48 | 33.11875 | 118.74140 | 35118 ft | 487 kts | 150° |
| 2026-05-04 15:48 | 33.03579 | 118.81046 | 35131 ft | 487 kts | 150° |
| 2026-05-04 15:49 | 32.98016 | 118.85642 | 35138 ft | 487 kts | 150° |
| 2026-05-04 15:49 | 32.92444 | 118.90238 | 35141 ft | 487 kts | 150° |
| 2026-05-04 15:50 | 32.86879 | 118.94829 | 35143 ft | 487 kts | 150° |
| 2026-05-04 15:50 | 32.81306 | 118.99429 | 35138 ft | 488 kts | 150° |
| 2026-05-04 15:51 | 32.75745 | 119.04048 | 35138 ft | 488 kts | 150° |
| 2026-05-04 15:51 | 32.70184 | 119.08673 | 35138 ft | 488 kts | 150° |
| 2026-05-04 15:52 | 32.64618 | 119.13291 | 35138 ft | 488 kts | 150° |
| 2026-05-04 15:52 | 32.59046 | 119.17895 | 35133 ft | 489 kts | 150° |
| 2026-05-04 15:53 | 32.53459 | 119.22505 | 35134 ft | 489 kts | 150° |
| 2026-05-04 15:53 | 32.47874 | 119.27108 | 35126 ft | 490 kts | 151° |
| 2026-05-04 15:54 | 32.42269 | 119.31713 | 35134 ft | 490 kts | 151° |
| 2026-05-04 15:54 | 32.36662 | 119.36319 | 35141 ft | 491 kts | 151° |
| 2026-05-04 15:55 | 32.31048 | 119.40922 | 35128 ft | 491 kts | 152° |
| 2026-05-04 15:55 | 32.25429 | 119.45516 | 35137 ft | 491 kts | 152° |
| 2026-05-04 15:56 | 32.19826 | 119.50097 | 35148 ft | 492 kts | 152° |
| 2026-05-04 15:56 | 32.14204 | 119.54690 | 35138 ft | 492 kts | 152° |
| 2026-05-04 15:57 | 32.08620 | 119.59255 | 35148 ft | 492 kts | 152° |
| 2026-05-04 15:57 | 32.02992 | 119.63835 | 35121 ft | 492 kts | 152° |
| 2026-05-04 15:58 | 31.97358 | 119.68429 | 35133 ft | 494 kts | 150° |
| 2026-05-04 15:58 | 31.92376 | 119.74179 | 34830 ft | 511 kts | 131° |
| 2026-05-04 15:59 | 31.90345 | 119.77631 | 34600 ft | 513 kts | 129° |
| 2026-05-04 15:59 | 31.88339 | 119.81102 | 34372 ft | 514 kts | 129° |
| 2026-05-04 15:59 | 31.86336 | 119.84588 | 34135 ft | 514 kts | 129° |
| 2026-05-04 15:59 | 31.84339 | 119.88075 | 33886 ft | 515 kts | 129° |
| 2026-05-04 16:00 | 31.82341 | 119.91563 | 33610 ft | 515 kts | 129° |
| 2026-05-04 16:00 | 31.80983 | 119.93925 | 33430 ft | 515 kts | 129° |
| 2026-05-04 16:00 | 31.78329 | 119.98538 | 33087 ft | 514 kts | 129° |
| 2026-05-04 16:00 | 31.76974 | 120.00888 | 32898 ft | 514 kts | 129° |
| 2026-05-04 16:01 | 31.74968 | 120.04362 | 32650 ft | 514 kts | 129° |
| 2026-05-04 16:01 | 31.72953 | 120.07839 | 32401 ft | 514 kts | 129° |
| 2026-05-04 16:01 | 31.70942 | 120.11304 | 32147 ft | 514 kts | 130° |
| 2026-05-04 16:01 | 31.68928 | 120.14774 | 31887 ft | 514 kts | 130° |
| 2026-05-04 16:02 | 31.66916 | 120.18240 | 31641 ft | 514 kts | 130° |
| 2026-05-04 16:02 | 31.64898 | 120.21710 | 31363 ft | 514 kts | 130° |
| 2026-05-04 16:02 | 31.60872 | 120.28634 | 30882 ft | 513 kts | 129° |
| 2026-05-04 16:03 | 31.59098 | 120.32225 | 30645 ft | 518 kts | 121° |
| 2026-05-04 16:03 | 31.57709 | 120.36140 | 30409 ft | 523 kts | 113° |
| 2026-05-04 16:03 | 31.56533 | 120.40176 | 30155 ft | 523 kts | 112° |
| 2026-05-04 16:03 | 31.55351 | 120.44201 | 29459 ft | 522 kts | 112° |
| 2026-05-04 16:04 | 31.54365 | 120.48294 | 27973 ft | 523 kts | 102° |
| 2026-05-04 16:04 | 31.53285 | 120.56595 | 25247 ft | 505 kts | 99° |
| 2026-05-04 16:04 | 31.52776 | 120.60631 | 24013 ft | 494 kts | 99° |
| 2026-05-04 16:05 | 31.52279 | 120.64568 | 22690 ft | 483 kts | 99° |
| 2026-05-04 16:05 | 31.51791 | 120.68423 | 21373 ft | 473 kts | 99° |
| 2026-05-04 16:05 | 31.50829 | 120.75893 | 18994 ft | 455 kts | 99° |
| 2026-05-04 16:06 | 31.50357 | 120.79528 | 17806 ft | 446 kts | 99° |
| 2026-05-04 16:06 | 31.49139 | 120.88828 | 14726 ft | 421 kts | 99° |
| 2026-05-04 16:07 | 31.48553 | 120.93289 | 13431 ft | 405 kts | 99° |
| 2026-05-04 16:07 | 31.47295 | 121.02857 | 11533 ft | 392 kts | 98° |
| 2026-05-04 16:08 | 31.46885 | 121.05960 | 11365 ft | 376 kts | 98° |
| 2026-05-04 16:08 | 31.45764 | 121.14449 | 10996 ft | 325 kts | 98° |
| 2026-05-04 16:09 | 31.45097 | 121.19452 | 10254 ft | 305 kts | 97° |
| 2026-05-04 16:09 | 31.44454 | 121.24290 | 9848 ft | 298 kts | 97° |
| 2026-05-04 16:10 | 31.43816 | 121.29081 | 9587 ft | 297 kts | 97° |
| 2026-05-04 16:11 | 31.42851 | 121.36230 | 8878 ft | 298 kts | 97° |
| 2026-05-04 16:11 | 31.42530 | 121.38625 | 8453 ft | 297 kts | 97° |
| 2026-05-04 16:12 | 31.41599 | 121.45556 | 7743 ft | 274 kts | 97° |
| 2026-05-04 16:12 | 31.40730 | 121.51935 | 6509 ft | 266 kts | 97° |
| 2026-05-04 16:13 | 31.40183 | 121.55960 | 6043 ft | 237 kts | 96° |
| 2026-05-04 16:13 | 31.40518 | 121.59753 | 5395 ft | 235 kts | 76° |
| 2026-05-04 16:14 | 31.41232 | 121.63445 | 4580 ft | 230 kts | 72° |
| 2026-05-04 16:14 | 31.43444 | 121.65736 | 3780 ft | 221 kts | 3° |
| 2026-05-04 16:15 | 31.47981 | 121.64749 | 2592 ft | 228 kts | 331° |
| 2026-05-04 16:16 | 31.50826 | 121.63098 | 1987 ft | 219 kts | 330° |
| 2026-05-04 16:16 | 31.54681 | 121.63595 | 2020 ft | 195 kts | 62° |
| 2026-05-04 16:17 | 31.54964 | 121.66487 | 1998 ft | 174 kts | 107° |
| 2026-05-04 16:18 | 31.53015 | 121.69727 | 2003 ft | 159 kts | 161° |
| 2026-05-04 16:18 | 31.51954 | 121.69976 | 2009 ft | 155 kts | 182° |
| 2026-05-04 16:19 | 31.48763 | 121.69819 | 1996 ft | 153 kts | 186° |
| 2026-05-04 16:19 | 31.46642 | 121.70127 | 2000 ft | 155 kts | 170° |
| 2026-05-04 16:20 | 31.43546 | 121.71199 | 2012 ft | 160 kts | 166° |
| 2026-05-04 16:20 | 31.41326 | 121.72034 | 2003 ft | 170 kts | 166° |
| 2026-05-04 16:21 | 31.37930 | 121.73323 | 2005 ft | 172 kts | 166° |
| 2026-05-04 16:22 | 31.35694 | 121.74171 | 2006 ft | 167 kts | 166° |
| 2026-05-04 16:22 | 31.32412 | 121.75415 | 2000 ft | 158 kts | 166° |
| 2026-05-04 16:23 | 31.29585 | 121.76487 | 2024 ft | 134 kts | 167° |
| 2026-05-04 16:24 | 31.26127 | 121.77795 | 1978 ft | 130 kts | 167° |
| 2026-05-04 16:25 | 31.24411 | 121.78444 | 1724 ft | 129 kts | 166° |
| 2026-05-04 16:26 | 31.21006 | 121.79731 | 1067 ft | 128 kts | 165° |
| 2026-05-04 16:26 | 31.18436 | 121.80698 | 546 ft | 130 kts | 162° |
| 2026-05-04 16:27 | 31.16705 | 121.81366 | 239 ft | 133 kts | 162° |
| 2026-05-04 16:28 | 31.14662 | 121.82132 | 22 ft | 38 kts | 162° |
| 2026-05-04 16:28 | 31.14310 | 121.82167 | 22 ft | 13 kts | 193° |
| 2026-05-04 16:29 | 31.14394 | 121.82022 | 23 ft | 23 kts | 342° |
| 2026-05-04 16:30 | 31.14874 | 121.81842 | 21 ft | 22 kts | 342° |
| 2026-05-04 16:31 | 31.14978 | 121.81733 | 22 ft | 8 kts | 250° |
| 2026-05-04 16:31 | 31.14893 | 121.81426 | 22 ft | 14 kts | 253° |
| 2026-05-04 16:32 | 31.14805 | 121.81106 | 23 ft | 8 kts | 252° |
| 2026-05-04 16:33 | 31.14901 | 121.81008 | 23 ft | 13 kts | 342° |
| 2026-05-04 16:33 | 31.15104 | 121.80930 | 23 ft | 19 kts | 341° |
| 2026-05-04 16:34 | 31.15303 | 121.80849 | 23 ft | 7 kts | 313° |
| 2026-05-04 16:34 | 31.15294 | 121.80803 | 23 ft | 5 kts | 251° |
| 2026-05-04 16:35 | 31.15282 | 121.80760 | 24 ft | 1 kts | 252° |
| 2026-05-04 16:35 | 31.15282 | 121.80759 | 24 ft | 0 kts | 252° |